<?xml version="1.0" encoding="UTF-8"?>
<gpx
  version="1.0"
  creator="GPSBabel - http://www.gpsbabel.org"
  xmlns:xsi="http://www.w3.org/2001/XMLSchema-instance"
  xmlns="http://www.topografix.com/GPX/1/0"
  xsi:schemaLocation="http://www.topografix.com/GPX/1/0 http://www.topografix.com/GPX/1/0/gpx.xsd http://www.topografix.com/GPX/1/1 http://www.topografix.com/GPX/1/1/gpx.xsd http://www.garmin.com/xmlschemas/GpxExtensions/v3 http://www.garmin.com/xmlschemas/GpxExtensionsv3.xsd http://www.garmin.com/xmlschemas/TrackPointExtension/v1 http://www.garmin.com/xmlschemas/TrackPointExtensionv1.xsd ">
<time>2011-10-31T17:10:38Z</time>
<bounds minlat="51.667558915" minlon="7.310416111" maxlat="51.704824541" maxlon="7.376484516"/>
<trk>
  <name>Hohe Mark Steig HMS_01 a+b_ R1 _Olfen - Dorf Ahsen-Olfen erstellt von: Emscher_Lippe</name>
<trkseg>
<trkpt lat="51.680858213" lon="7.363432497">
  <ele>43.000000</ele>
  <time>2013-04-03T16:50:37Z</time>
</trkpt>
<trkpt lat="51.681751878" lon="7.362706086">
  <ele>49.000000</ele>
  <time>2013-04-03T16:50:40Z</time>
</trkpt>
<trkpt lat="51.682257862" lon="7.362254031">
  <ele>52.000000</ele>
  <time>2013-04-03T16:50:47Z</time>
</trkpt>
<trkpt lat="51.682390462" lon="7.362119191">
  <ele>52.000000</ele>
  <time>2013-04-03T16:50:48Z</time>
</trkpt>
<trkpt lat="51.682470320" lon="7.362029464">
  <ele>50.000000</ele>
  <time>2013-04-03T16:50:49Z</time>
</trkpt>
<trkpt lat="51.682629992" lon="7.361872039">
  <ele>50.000000</ele>
  <time>2013-04-03T16:50:51Z</time>
</trkpt>
<trkpt lat="51.682773856" lon="7.361563098">
  <ele>50.000000</ele>
  <time>2013-04-03T16:50:53Z</time>
</trkpt>
<trkpt lat="51.682837608" lon="7.361300541">
  <ele>50.000000</ele>
  <time>2013-04-03T16:50:54Z</time>
</trkpt>
<trkpt lat="51.682964504" lon="7.360731954">
  <ele>48.000000</ele>
  <time>2013-04-03T16:50:55Z</time>
</trkpt>
<trkpt lat="51.683064073" lon="7.360142746">
  <ele>47.000000</ele>
  <time>2013-04-03T16:50:57Z</time>
</trkpt>
<trkpt lat="51.683152423" lon="7.359705745">
  <ele>46.000000</ele>
  <time>2013-04-03T16:50:59Z</time>
</trkpt>
<trkpt lat="51.683152119" lon="7.359684009">
  <ele>46.000000</ele>
  <time>2013-04-03T16:51:05Z</time>
</trkpt>
<trkpt lat="51.683291436" lon="7.359050006">
  <ele>43.000000</ele>
  <time>2013-04-03T16:51:08Z</time>
</trkpt>
<trkpt lat="51.683443878" lon="7.358350424">
  <ele>41.000000</ele>
  <time>2013-04-03T16:51:11Z</time>
</trkpt>
<trkpt lat="51.683585309" lon="7.357868142">
  <ele>41.000000</ele>
  <time>2013-04-03T16:51:12Z</time>
</trkpt>
<trkpt lat="51.683645413" lon="7.357345307">
  <ele>41.000000</ele>
  <time>2013-04-03T16:51:14Z</time>
</trkpt>
<trkpt lat="51.683761989" lon="7.356994121">
  <ele>46.000000</ele>
  <time>2013-04-03T16:51:15Z</time>
</trkpt>
<trkpt lat="51.683904021" lon="7.356555163">
  <ele>46.000000</ele>
  <time>2013-04-03T16:51:15Z</time>
</trkpt>
<trkpt lat="51.684048782" lon="7.356311264">
  <ele>49.000000</ele>
  <time>2013-04-03T16:51:20Z</time>
</trkpt>
<trkpt lat="51.684406036" lon="7.355821150">
  <ele>53.000000</ele>
  <time>2013-04-03T16:51:22Z</time>
</trkpt>
<trkpt lat="51.684644288" lon="7.355508757">
  <ele>63.000000</ele>
  <time>2013-04-03T16:51:24Z</time>
</trkpt>
<trkpt lat="51.684816373" lon="7.355285608">
  <ele>63.000000</ele>
  <time>2013-04-03T16:51:25Z</time>
</trkpt>
<trkpt lat="51.685014267" lon="7.354974813">
  <ele>66.000000</ele>
  <time>2013-04-03T16:51:29Z</time>
</trkpt>
<trkpt lat="51.685374930" lon="7.354527909">
  <ele>63.000000</ele>
  <time>2013-04-03T16:51:37Z</time>
</trkpt>
<trkpt lat="51.685771622" lon="7.353971232">
  <ele>61.000000</ele>
  <time>2013-04-03T16:51:41Z</time>
</trkpt>
<trkpt lat="51.686155584" lon="7.353458362">
  <ele>51.000000</ele>
  <time>2013-04-03T16:51:44Z</time>
</trkpt>
<trkpt lat="51.686486108" lon="7.352990921">
  <ele>45.000000</ele>
  <time>2013-04-03T16:51:46Z</time>
</trkpt>
<trkpt lat="51.686736823" lon="7.352591334">
  <ele>41.000000</ele>
  <time>2013-04-03T16:51:50Z</time>
</trkpt>
<trkpt lat="51.687053349" lon="7.352102498">
  <ele>41.000000</ele>
  <time>2013-04-03T16:51:52Z</time>
</trkpt>
<trkpt lat="51.687318919" lon="7.351810823">
  <ele>41.000000</ele>
  <time>2013-04-03T16:51:53Z</time>
</trkpt>
<trkpt lat="51.687478574" lon="7.351653205">
  <ele>42.000000</ele>
  <time>2013-04-03T16:51:54Z</time>
</trkpt>
<trkpt lat="51.687623934" lon="7.351452747">
  <ele>42.000000</ele>
  <time>2013-04-03T16:51:56Z</time>
</trkpt>
<trkpt lat="51.687836065" lon="7.351206364">
  <ele>42.000000</ele>
  <time>2013-04-03T16:51:59Z</time>
</trkpt>
<trkpt lat="51.688143560" lon="7.351000011">
  <ele>46.000000</ele>
  <time>2013-04-03T16:52:05Z</time>
</trkpt>
<trkpt lat="51.688396051" lon="7.350752297">
  <ele>47.000000</ele>
  <time>2013-04-03T16:52:07Z</time>
</trkpt>
<trkpt lat="51.688824924" lon="7.350563134">
  <ele>52.000000</ele>
  <time>2013-04-03T16:52:08Z</time>
</trkpt>
<trkpt lat="51.689066817" lon="7.350510982">
  <ele>53.000000</ele>
  <time>2013-04-03T16:52:09Z</time>
</trkpt>
<trkpt lat="51.689321787" lon="7.350414854">
  <ele>52.000000</ele>
  <time>2013-04-03T16:52:10Z</time>
</trkpt>
<trkpt lat="51.689551211" lon="7.350449871">
  <ele>54.000000</ele>
  <time>2013-04-03T16:52:12Z</time>
</trkpt>
<trkpt lat="51.689943684" lon="7.350544070">
  <ele>54.000000</ele>
  <time>2013-04-03T16:52:13Z</time>
</trkpt>
<trkpt lat="51.690446639" lon="7.350829584">
  <ele>49.000000</ele>
  <time>2013-04-03T16:52:19Z</time>
</trkpt>
<trkpt lat="51.690813566" lon="7.351054938">
  <ele>49.000000</ele>
  <time>2013-04-03T16:52:21Z</time>
</trkpt>
<trkpt lat="51.691136831" lon="7.351021438">
  <ele>49.000000</ele>
  <time>2013-04-03T16:52:24Z</time>
</trkpt>
<trkpt lat="51.691352310" lon="7.351013605">
  <ele>46.000000</ele>
  <time>2013-04-03T16:52:26Z</time>
</trkpt>
<trkpt lat="51.691674358" lon="7.350893427">
  <ele>45.000000</ele>
  <time>2013-04-03T16:52:29Z</time>
</trkpt>
<trkpt lat="51.691929632" lon="7.350819036">
  <ele>44.000000</ele>
  <time>2013-04-03T16:52:30Z</time>
</trkpt>
<trkpt lat="51.692157534" lon="7.350745638">
  <ele>45.000000</ele>
  <time>2013-04-03T16:52:31Z</time>
</trkpt>
<trkpt lat="51.692427409" lon="7.350735827">
  <ele>45.000000</ele>
  <time>2013-04-03T16:52:32Z</time>
</trkpt>
<trkpt lat="51.692635642" lon="7.350562013">
  <ele>45.000000</ele>
  <time>2013-04-03T16:52:33Z</time>
</trkpt>
<trkpt lat="51.692837785" lon="7.350554664">
  <ele>45.000000</ele>
  <time>2013-04-03T16:52:35Z</time>
</trkpt>
<trkpt lat="51.692964890" lon="7.350629563">
  <ele>47.000000</ele>
  <time>2013-04-03T16:52:36Z</time>
</trkpt>
<trkpt lat="51.693179197" lon="7.350513295">
  <ele>47.000000</ele>
  <time>2013-04-03T16:52:36Z</time>
</trkpt>
<trkpt lat="51.693328560" lon="7.350572978">
  <ele>47.000000</ele>
  <time>2013-04-03T16:52:37Z</time>
</trkpt>
<trkpt lat="51.693572842" lon="7.350715935">
  <ele>47.000000</ele>
  <time>2013-04-03T16:52:38Z</time>
</trkpt>
<trkpt lat="51.694156559" lon="7.350976785">
  <ele>45.000000</ele>
  <time>2013-04-03T16:52:52Z</time>
</trkpt>
<trkpt lat="51.694466139" lon="7.350943920">
  <ele>45.000000</ele>
  <time>2013-04-03T16:52:53Z</time>
</trkpt>
<trkpt lat="51.694978165" lon="7.350925306">
  <ele>47.000000</ele>
  <time>2013-04-03T16:52:55Z</time>
</trkpt>
<trkpt lat="51.695342702" lon="7.350955418">
  <ele>47.000000</ele>
  <time>2013-04-03T16:52:57Z</time>
</trkpt>
<trkpt lat="51.695709305" lon="7.350182574">
  <ele>49.000000</ele>
  <time>2013-04-03T16:53:01Z</time>
</trkpt>
<trkpt lat="51.696129952" lon="7.349408033">
  <ele>51.000000</ele>
  <time>2013-04-03T16:53:02Z</time>
</trkpt>
<trkpt lat="51.696537560" lon="7.348655423">
  <ele>53.000000</ele>
  <time>2013-04-03T16:53:05Z</time>
</trkpt>
<trkpt lat="51.696799767" lon="7.348125206">
  <ele>53.000000</ele>
  <time>2013-04-03T16:53:09Z</time>
</trkpt>
<trkpt lat="51.696918707" lon="7.347969023">
  <ele>54.000000</ele>
  <time>2013-04-03T16:53:10Z</time>
</trkpt>
<trkpt lat="51.697010670" lon="7.347792069">
  <ele>52.000000</ele>
  <time>2013-04-03T16:53:11Z</time>
</trkpt>
<trkpt lat="51.697153886" lon="7.347439641">
  <ele>54.000000</ele>
  <time>2013-04-03T16:53:13Z</time>
</trkpt>
<trkpt lat="51.697488961" lon="7.347297334">
  <ele>52.000000</ele>
  <time>2013-04-03T16:53:15Z</time>
</trkpt>
<trkpt lat="51.698025006" lon="7.347039355">
  <ele>50.000000</ele>
  <time>2013-04-03T16:53:21Z</time>
</trkpt>
<trkpt lat="51.698385879" lon="7.346809084">
  <ele>50.000000</ele>
  <time>2013-04-03T16:53:23Z</time>
</trkpt>
<trkpt lat="51.698640190" lon="7.346691325">
  <ele>49.000000</ele>
  <time>2013-04-03T16:53:24Z</time>
</trkpt>
<trkpt lat="51.698853578" lon="7.346510076">
  <ele>50.000000</ele>
  <time>2013-04-03T16:53:25Z</time>
</trkpt>
<trkpt lat="51.699066308" lon="7.346306953">
  <ele>50.000000</ele>
  <time>2013-04-03T16:53:26Z</time>
</trkpt>
<trkpt lat="51.699386823" lon="7.346078285">
  <ele>48.000000</ele>
  <time>2013-04-03T16:53:29Z</time>
</trkpt>
<trkpt lat="51.699599554" lon="7.345875299">
  <ele>51.000000</ele>
  <time>2013-04-03T16:53:30Z</time>
</trkpt>
<trkpt lat="51.699771009" lon="7.345608693">
  <ele>50.000000</ele>
  <time>2013-04-03T16:53:33Z</time>
</trkpt>
<trkpt lat="51.699940630" lon="7.345211905">
  <ele>50.000000</ele>
  <time>2013-04-03T16:53:35Z</time>
</trkpt>
<trkpt lat="51.700231368" lon="7.344788938">
  <ele>50.000000</ele>
  <time>2013-04-03T16:53:37Z</time>
</trkpt>
<trkpt lat="51.700454114" lon="7.344325079">
  <ele>52.000000</ele>
  <time>2013-04-03T16:53:39Z</time>
</trkpt>
<trkpt lat="51.700559409" lon="7.344147758">
  <ele>52.000000</ele>
  <time>2013-04-03T16:53:41Z</time>
</trkpt>
<trkpt lat="51.700650755" lon="7.343927434">
  <ele>51.000000</ele>
  <time>2013-04-03T16:53:42Z</time>
</trkpt>
<trkpt lat="51.700661337" lon="7.343731673">
  <ele>51.000000</ele>
  <time>2013-04-03T16:53:43Z</time>
</trkpt>
<trkpt lat="51.700668907" lon="7.343297420">
  <ele>51.000000</ele>
  <time>2013-04-03T16:53:44Z</time>
</trkpt>
<trkpt lat="51.700607213" lon="7.342757204">
  <ele>49.000000</ele>
  <time>2013-04-03T16:53:45Z</time>
</trkpt>
<trkpt lat="51.700489376" lon="7.342045564">
  <ele>48.000000</ele>
  <time>2013-04-03T16:53:47Z</time>
</trkpt>
<trkpt lat="51.700456230" lon="7.341612801">
  <ele>48.000000</ele>
  <time>2013-04-03T16:53:48Z</time>
</trkpt>
<trkpt lat="51.700381500" lon="7.341094821">
  <ele>44.000000</ele>
  <time>2013-04-03T16:53:50Z</time>
</trkpt>
<trkpt lat="51.700337157" lon="7.340814191">
  <ele>44.000000</ele>
  <time>2013-04-03T16:53:51Z</time>
</trkpt>
<trkpt lat="51.700304620" lon="7.340424777">
  <ele>44.000000</ele>
  <time>2013-04-03T16:53:53Z</time>
</trkpt>
<trkpt lat="51.700286382" lon="7.340078351">
  <ele>43.000000</ele>
  <time>2013-04-03T16:53:54Z</time>
</trkpt>
<trkpt lat="51.700227434" lon="7.339733415">
  <ele>42.000000</ele>
  <time>2013-04-03T16:53:55Z</time>
</trkpt>
<trkpt lat="51.700126284" lon="7.339259636">
  <ele>43.000000</ele>
  <time>2013-04-03T16:53:56Z</time>
</trkpt>
<trkpt lat="51.699916170" lon="7.338703254">
  <ele>41.000000</ele>
  <time>2013-04-03T16:53:59Z</time>
</trkpt>
<trkpt lat="51.699693943" lon="7.338234058">
  <ele>42.000000</ele>
  <time>2013-04-03T16:54:01Z</time>
</trkpt>
<trkpt lat="51.699497771" lon="7.337720402">
  <ele>42.000000</ele>
  <time>2013-04-03T16:54:03Z</time>
</trkpt>
<trkpt lat="51.699083221" lon="7.337952577">
  <ele>44.000000</ele>
  <time>2013-04-03T16:54:08Z</time>
</trkpt>
<trkpt lat="51.698895643" lon="7.338046327">
  <ele>46.000000</ele>
  <time>2013-04-03T16:54:14Z</time>
</trkpt>
<trkpt lat="51.698761190" lon="7.338073009">
  <ele>46.000000</ele>
  <time>2013-04-03T16:54:17Z</time>
</trkpt>
<trkpt lat="51.698707802" lon="7.338096578">
  <ele>47.000000</ele>
  <time>2013-04-03T16:54:17Z</time>
</trkpt>
<trkpt lat="51.698586684" lon="7.338122770">
  <ele>47.000000</ele>
  <time>2013-04-03T16:54:18Z</time>
</trkpt>
<trkpt lat="51.698519303" lon="7.338125239">
  <ele>47.000000</ele>
  <time>2013-04-03T16:54:19Z</time>
</trkpt>
<trkpt lat="51.698568745" lon="7.337797960">
  <ele>45.000000</ele>
  <time>2013-04-03T16:54:21Z</time>
</trkpt>
<trkpt lat="51.698727152" lon="7.337553421">
  <ele>45.000000</ele>
  <time>2013-04-03T16:54:22Z</time>
</trkpt>
<trkpt lat="51.698843622" lon="7.337223682">
  <ele>42.000000</ele>
  <time>2013-04-03T16:54:22Z</time>
</trkpt>
<trkpt lat="51.698882139" lon="7.337092167">
  <ele>42.000000</ele>
  <time>2013-04-03T16:54:23Z</time>
</trkpt>
<trkpt lat="51.698987464" lon="7.336892938">
  <ele>40.000000</ele>
  <time>2013-04-03T16:54:24Z</time>
</trkpt>
<trkpt lat="51.699253609" lon="7.336644584">
  <ele>39.000000</ele>
  <time>2013-04-03T16:54:25Z</time>
</trkpt>
<trkpt lat="51.699409513" lon="7.336248269">
  <ele>40.000000</ele>
  <time>2013-04-03T16:54:27Z</time>
</trkpt>
<trkpt lat="51.699485970" lon="7.335919849">
  <ele>39.000000</ele>
  <time>2013-04-03T16:54:28Z</time>
</trkpt>
<trkpt lat="51.699603051" lon="7.335633588">
  <ele>44.000000</ele>
  <time>2013-04-03T16:54:29Z</time>
</trkpt>
<trkpt lat="51.699706531" lon="7.335304314">
  <ele>45.000000</ele>
  <time>2013-04-03T16:54:31Z</time>
</trkpt>
<trkpt lat="51.699593828" lon="7.334982835">
  <ele>45.000000</ele>
  <time>2013-04-03T16:54:32Z</time>
</trkpt>
<trkpt lat="51.699424403" lon="7.334424984">
  <ele>45.000000</ele>
  <time>2013-04-03T16:54:34Z</time>
</trkpt>
<trkpt lat="51.699137504" lon="7.334175171">
  <ele>45.000000</ele>
  <time>2013-04-03T16:54:36Z</time>
</trkpt>
<trkpt lat="51.698808136" lon="7.333753309">
  <ele>47.000000</ele>
  <time>2013-04-03T16:54:38Z</time>
</trkpt>
<trkpt lat="51.698456007" lon="7.333657615">
  <ele>51.000000</ele>
  <time>2013-04-03T16:54:53Z</time>
</trkpt>
<trkpt lat="51.698198942" lon="7.333580325">
  <ele>51.000000</ele>
  <time>2013-04-03T16:54:54Z</time>
</trkpt>
<trkpt lat="51.697927882" lon="7.333481797">
  <ele>50.000000</ele>
  <time>2013-04-03T16:54:56Z</time>
</trkpt>
<trkpt lat="51.697668003" lon="7.333231004">
  <ele>45.000000</ele>
  <time>2013-04-03T16:54:58Z</time>
</trkpt>
<trkpt lat="51.698026037" lon="7.332827262">
  <ele>48.000000</ele>
  <time>2013-04-03T16:54:59Z</time>
</trkpt>
<trkpt lat="51.698238171" lon="7.332559121">
  <ele>50.000000</ele>
  <time>2013-04-03T16:55:00Z</time>
</trkpt>
<trkpt lat="51.698570455" lon="7.332221437">
  <ele>51.000000</ele>
  <time>2013-04-03T16:55:05Z</time>
</trkpt>
<trkpt lat="51.698850581" lon="7.331994015">
  <ele>53.000000</ele>
  <time>2013-04-03T16:55:06Z</time>
</trkpt>
<trkpt lat="51.699251170" lon="7.331719073">
  <ele>53.000000</ele>
  <time>2013-04-03T16:55:07Z</time>
</trkpt>
<trkpt lat="51.699449304" lon="7.331429538">
  <ele>53.000000</ele>
  <time>2013-04-03T16:55:08Z</time>
</trkpt>
<trkpt lat="51.699768207" lon="7.331114084">
  <ele>55.000000</ele>
  <time>2013-04-03T16:55:18Z</time>
</trkpt>
<trkpt lat="51.700019728" lon="7.330801105">
  <ele>54.000000</ele>
  <time>2013-04-03T16:55:21Z</time>
</trkpt>
<trkpt lat="51.700245807" lon="7.330575657">
  <ele>54.000000</ele>
  <time>2013-04-03T16:55:22Z</time>
</trkpt>
<trkpt lat="51.700523161" lon="7.330153368">
  <ele>53.000000</ele>
  <time>2013-04-03T16:55:26Z</time>
</trkpt>
<trkpt lat="51.700814110" lon="7.329773660">
  <ele>52.000000</ele>
  <time>2013-04-03T16:55:27Z</time>
</trkpt>
<trkpt lat="51.701157296" lon="7.329240299">
  <ele>45.000000</ele>
  <time>2013-04-03T16:55:30Z</time>
</trkpt>
<trkpt lat="51.701488953" lon="7.328859221">
  <ele>44.000000</ele>
  <time>2013-04-03T16:55:31Z</time>
</trkpt>
<trkpt lat="51.701791117" lon="7.328305601">
  <ele>43.000000</ele>
  <time>2013-04-03T16:55:36Z</time>
</trkpt>
<trkpt lat="51.702083337" lon="7.327990951">
  <ele>48.000000</ele>
  <time>2013-04-03T16:55:37Z</time>
</trkpt>
<trkpt lat="51.702215320" lon="7.327790845">
  <ele>46.000000</ele>
  <time>2013-04-03T16:55:38Z</time>
</trkpt>
<trkpt lat="51.702413753" lon="7.327523018">
  <ele>47.000000</ele>
  <time>2013-04-03T16:55:39Z</time>
</trkpt>
<trkpt lat="51.702523709" lon="7.326737856">
  <ele>44.000000</ele>
  <time>2013-04-03T16:55:41Z</time>
</trkpt>
<trkpt lat="51.702581199" lon="7.326041229">
  <ele>42.000000</ele>
  <time>2013-04-03T16:55:46Z</time>
</trkpt>
<trkpt lat="51.702626897" lon="7.325453675">
  <ele>40.000000</ele>
  <time>2013-04-03T16:55:48Z</time>
</trkpt>
<trkpt lat="51.702794594" lon="7.324926742">
  <ele>41.000000</ele>
  <time>2013-04-03T16:55:50Z</time>
</trkpt>
<trkpt lat="51.703040886" lon="7.324223696">
  <ele>44.000000</ele>
  <time>2013-04-03T16:55:55Z</time>
</trkpt>
<trkpt lat="51.703207336" lon="7.323609772">
  <ele>48.000000</ele>
  <time>2013-04-03T16:55:57Z</time>
</trkpt>
<trkpt lat="51.703335598" lon="7.323149553">
  <ele>48.000000</ele>
  <time>2013-04-03T16:55:58Z</time>
</trkpt>
<trkpt lat="51.703529375" lon="7.322556368">
  <ele>46.000000</ele>
  <time>2013-04-03T16:56:00Z</time>
</trkpt>
<trkpt lat="51.703632467" lon="7.322227050">
  <ele>44.000000</ele>
  <time>2013-04-03T16:56:01Z</time>
</trkpt>
<trkpt lat="51.703683102" lon="7.321986416">
  <ele>41.000000</ele>
  <time>2013-04-03T16:56:02Z</time>
</trkpt>
<trkpt lat="51.703882454" lon="7.321783792">
  <ele>42.000000</ele>
  <time>2013-04-03T16:56:04Z</time>
</trkpt>
<trkpt lat="51.703975927" lon="7.321715203">
  <ele>42.000000</ele>
  <time>2013-04-03T16:56:05Z</time>
</trkpt>
<trkpt lat="51.704087082" lon="7.321016701">
  <ele>40.000000</ele>
  <time>2013-04-03T16:56:06Z</time>
</trkpt>
<trkpt lat="51.704187377" lon="7.320492088">
  <ele>39.000000</ele>
  <time>2013-04-03T16:56:08Z</time>
</trkpt>
<trkpt lat="51.704271856" lon="7.319794709">
  <ele>39.000000</ele>
  <time>2013-04-03T16:56:12Z</time>
</trkpt>
<trkpt lat="51.704274679" lon="7.319034942">
  <ele>41.000000</ele>
  <time>2013-04-03T16:56:14Z</time>
</trkpt>
<trkpt lat="51.704344531" lon="7.318272971">
  <ele>44.000000</ele>
  <time>2013-04-03T16:56:16Z</time>
</trkpt>
<trkpt lat="51.704441707" lon="7.317531458">
  <ele>46.000000</ele>
  <time>2013-04-03T16:56:18Z</time>
</trkpt>
<trkpt lat="51.704446383" lon="7.316902020">
  <ele>46.000000</ele>
  <time>2013-04-03T16:56:19Z</time>
</trkpt>
<trkpt lat="51.704574303" lon="7.316419742">
  <ele>46.000000</ele>
  <time>2013-04-03T16:56:21Z</time>
</trkpt>
<trkpt lat="51.704648179" lon="7.315939610">
  <ele>46.000000</ele>
  <time>2013-04-03T16:56:22Z</time>
</trkpt>
<trkpt lat="51.704721119" lon="7.315394380">
  <ele>45.000000</ele>
  <time>2013-04-03T16:56:23Z</time>
</trkpt>
<trkpt lat="51.704824541" lon="7.315065024">
  <ele>44.000000</ele>
  <time>2013-04-03T16:56:24Z</time>
</trkpt>
<trkpt lat="51.704817965" lon="7.314631109">
  <ele>44.000000</ele>
  <time>2013-04-03T16:56:32Z</time>
</trkpt>
<trkpt lat="51.704798053" lon="7.314197832">
  <ele>43.000000</ele>
  <time>2013-04-03T16:56:35Z</time>
</trkpt>
<trkpt lat="51.704796187" lon="7.314067781">
  <ele>43.000000</ele>
  <time>2013-04-03T16:56:36Z</time>
</trkpt>
<trkpt lat="51.704724759" lon="7.313788297">
  <ele>42.000000</ele>
  <time>2013-04-03T16:56:38Z</time>
</trkpt>
<trkpt lat="51.704586303" lon="7.313511307">
  <ele>43.000000</ele>
  <time>2013-04-03T16:56:39Z</time>
</trkpt>
<trkpt lat="51.704504304" lon="7.313449368">
  <ele>40.000000</ele>
  <time>2013-04-03T16:56:40Z</time>
</trkpt>
<trkpt lat="51.704354027" lon="7.313302939">
  <ele>40.000000</ele>
  <time>2013-04-03T16:56:42Z</time>
</trkpt>
<trkpt lat="51.704095664" lon="7.313160674">
  <ele>38.000000</ele>
  <time>2013-04-03T16:56:44Z</time>
</trkpt>
<trkpt lat="51.703946012" lon="7.313057738">
  <ele>37.000000</ele>
  <time>2013-04-03T16:56:45Z</time>
</trkpt>
<trkpt lat="51.703808448" lon="7.312867467">
  <ele>35.000000</ele>
  <time>2013-04-03T16:56:46Z</time>
</trkpt>
<trkpt lat="51.703643240" lon="7.312634995">
  <ele>34.000000</ele>
  <time>2013-04-03T16:56:47Z</time>
</trkpt>
<trkpt lat="51.703560306" lon="7.312507964">
  <ele>34.000000</ele>
  <time>2013-04-03T16:56:48Z</time>
</trkpt>
<trkpt lat="51.703317536" lon="7.312473485">
  <ele>34.000000</ele>
  <time>2013-04-03T16:56:50Z</time>
</trkpt>
<trkpt lat="51.703234911" lon="7.312368059">
  <ele>34.000000</ele>
  <time>2013-04-03T16:56:51Z</time>
</trkpt>
<trkpt lat="51.703017256" lon="7.312224287">
  <ele>36.000000</ele>
  <time>2013-04-03T16:56:53Z</time>
</trkpt>
<trkpt lat="51.702744310" lon="7.311995831">
  <ele>35.000000</ele>
  <time>2013-04-03T16:56:55Z</time>
</trkpt>
<trkpt lat="51.702580033" lon="7.311828178">
  <ele>35.000000</ele>
  <time>2013-04-03T16:56:56Z</time>
</trkpt>
<trkpt lat="51.702308332" lon="7.311686423">
  <ele>34.000000</ele>
  <time>2013-04-03T16:57:04Z</time>
</trkpt>
<trkpt lat="51.702211438" lon="7.311516546">
  <ele>35.000000</ele>
  <time>2013-04-03T16:57:05Z</time>
</trkpt>
<trkpt lat="51.702076679" lon="7.311521563">
  <ele>35.000000</ele>
  <time>2013-04-03T16:57:06Z</time>
</trkpt>
<trkpt lat="51.701834805" lon="7.311573940">
  <ele>35.000000</ele>
  <time>2013-04-03T16:57:11Z</time>
</trkpt>
<trkpt lat="51.701685737" lon="7.311536119">
  <ele>35.000000</ele>
  <time>2013-04-03T16:57:12Z</time>
</trkpt>
<trkpt lat="51.701537642" lon="7.311541633">
  <ele>35.000000</ele>
  <time>2013-04-03T16:57:14Z</time>
</trkpt>
<trkpt lat="51.701373364" lon="7.311373986">
  <ele>36.000000</ele>
  <time>2013-04-03T16:57:15Z</time>
</trkpt>
<trkpt lat="51.701277133" lon="7.311225844">
  <ele>36.000000</ele>
  <time>2013-04-03T16:57:16Z</time>
</trkpt>
<trkpt lat="51.701110321" lon="7.310906428">
  <ele>36.000000</ele>
  <time>2013-04-03T16:57:17Z</time>
</trkpt>
<trkpt lat="51.700999817" lon="7.310693694">
  <ele>35.000000</ele>
  <time>2013-04-03T16:57:19Z</time>
</trkpt>
<trkpt lat="51.700874336" lon="7.310416111">
  <ele>36.000000</ele>
  <time>2013-04-03T16:57:21Z</time>
</trkpt>
<trkpt lat="51.700793896" lon="7.310462619">
  <ele>36.000000</ele>
  <time>2013-04-03T16:57:22Z</time>
</trkpt>
<trkpt lat="51.700715053" lon="7.310595806">
  <ele>36.000000</ele>
  <time>2013-04-03T16:57:23Z</time>
</trkpt>
<trkpt lat="51.700661670" lon="7.310619409">
  <ele>36.000000</ele>
  <time>2013-04-03T16:57:24Z</time>
</trkpt>
<trkpt lat="51.700500787" lon="7.310712282">
  <ele>36.000000</ele>
  <time>2013-04-03T16:57:26Z</time>
</trkpt>
<trkpt lat="51.700382520" lon="7.310911920">
  <ele>37.000000</ele>
  <time>2013-04-03T16:57:27Z</time>
</trkpt>
<trkpt lat="51.700317636" lon="7.311087955">
  <ele>37.000000</ele>
  <time>2013-04-03T16:57:28Z</time>
</trkpt>
<trkpt lat="51.700334751" lon="7.311325919">
  <ele>37.000000</ele>
  <time>2013-04-03T16:57:28Z</time>
</trkpt>
<trkpt lat="51.700286319" lon="7.311718328">
  <ele>37.000000</ele>
  <time>2013-04-03T16:57:29Z</time>
</trkpt>
<trkpt lat="51.700375138" lon="7.312279246">
  <ele>37.000000</ele>
  <time>2013-04-03T16:57:30Z</time>
</trkpt>
<trkpt lat="51.700421143" lon="7.312646385">
  <ele>38.000000</ele>
  <time>2013-04-03T16:57:31Z</time>
</trkpt>
<trkpt lat="51.700478262" lon="7.312882862">
  <ele>38.000000</ele>
  <time>2013-04-03T16:57:32Z</time>
</trkpt>
<trkpt lat="51.700485114" lon="7.313359953">
  <ele>36.000000</ele>
  <time>2013-04-03T16:57:33Z</time>
</trkpt>
<trkpt lat="51.700462142" lon="7.313643062">
  <ele>36.000000</ele>
  <time>2013-04-03T16:57:34Z</time>
</trkpt>
<trkpt lat="51.700178674" lon="7.314564918">
  <ele>36.000000</ele>
  <time>2013-04-03T16:57:36Z</time>
</trkpt>
<trkpt lat="51.699786879" lon="7.315425663">
  <ele>36.000000</ele>
  <time>2013-04-03T16:57:38Z</time>
</trkpt>
<trkpt lat="51.699459580" lon="7.316132138">
  <ele>35.000000</ele>
  <time>2013-04-03T16:57:40Z</time>
</trkpt>
<trkpt lat="51.699134492" lon="7.316968766">
  <ele>34.000000</ele>
  <time>2013-04-03T16:57:42Z</time>
</trkpt>
<trkpt lat="51.698835799" lon="7.317761035">
  <ele>35.000000</ele>
  <time>2013-04-03T16:57:44Z</time>
</trkpt>
<trkpt lat="51.698651654" lon="7.318093334">
  <ele>35.000000</ele>
  <time>2013-04-03T16:57:45Z</time>
</trkpt>
<trkpt lat="51.698168220" lon="7.319152497">
  <ele>38.000000</ele>
  <time>2013-04-03T16:57:50Z</time>
</trkpt>
<trkpt lat="51.697393159" lon="7.320591545">
  <ele>37.000000</ele>
  <time>2013-04-03T16:57:54Z</time>
</trkpt>
<trkpt lat="51.696802545" lon="7.321719878">
  <ele>38.000000</ele>
  <time>2013-04-03T16:57:56Z</time>
</trkpt>
<trkpt lat="51.696264727" lon="7.322759497">
  <ele>39.000000</ele>
  <time>2013-04-03T16:57:59Z</time>
</trkpt>
<trkpt lat="51.695870047" lon="7.323446883">
  <ele>37.000000</ele>
  <time>2013-04-03T16:58:01Z</time>
</trkpt>
<trkpt lat="51.695765670" lon="7.323710930">
  <ele>36.000000</ele>
  <time>2013-04-03T16:58:02Z</time>
</trkpt>
<trkpt lat="51.695648001" lon="7.323953997">
  <ele>36.000000</ele>
  <time>2013-04-03T16:58:05Z</time>
</trkpt>
<trkpt lat="51.695541191" lon="7.324023061">
  <ele>36.000000</ele>
  <time>2013-04-03T16:58:06Z</time>
</trkpt>
<trkpt lat="51.695452048" lon="7.324395165">
  <ele>36.000000</ele>
  <time>2013-04-03T16:58:07Z</time>
</trkpt>
<trkpt lat="51.695495192" lon="7.324588923">
  <ele>36.000000</ele>
  <time>2013-04-03T16:58:08Z</time>
</trkpt>
<trkpt lat="51.695591757" lon="7.324737062">
  <ele>36.000000</ele>
  <time>2013-04-03T16:58:09Z</time>
</trkpt>
<trkpt lat="51.695661614" lon="7.324908224">
  <ele>35.000000</ele>
  <time>2013-04-03T16:58:10Z</time>
</trkpt>
<trkpt lat="51.695731466" lon="7.325079103">
  <ele>35.000000</ele>
  <time>2013-04-03T16:58:10Z</time>
</trkpt>
<trkpt lat="51.695773680" lon="7.325207780">
  <ele>36.000000</ele>
  <time>2013-04-03T16:58:11Z</time>
</trkpt>
<trkpt lat="51.695762819" lon="7.325381782">
  <ele>36.000000</ele>
  <time>2013-04-03T16:58:12Z</time>
</trkpt>
<trkpt lat="51.695618081" lon="7.325647455">
  <ele>36.000000</ele>
  <time>2013-04-03T16:58:13Z</time>
</trkpt>
<trkpt lat="51.695544474" lon="7.326149218">
  <ele>37.000000</ele>
  <time>2013-04-03T16:58:15Z</time>
</trkpt>
<trkpt lat="51.695550654" lon="7.326582918">
  <ele>37.000000</ele>
  <time>2013-04-03T16:58:16Z</time>
</trkpt>
<trkpt lat="51.695658339" lon="7.327511922">
  <ele>37.000000</ele>
  <time>2013-04-03T16:58:17Z</time>
</trkpt>
<trkpt lat="51.695693036" lon="7.328074667">
  <ele>36.000000</ele>
  <time>2013-04-03T16:58:18Z</time>
</trkpt>
<trkpt lat="51.695698282" lon="7.328443286">
  <ele>35.000000</ele>
  <time>2013-04-03T16:58:19Z</time>
</trkpt>
<trkpt lat="51.695757265" lon="7.328788313">
  <ele>34.000000</ele>
  <time>2013-04-03T16:58:20Z</time>
</trkpt>
<trkpt lat="51.695787989" lon="7.329047511">
  <ele>35.000000</ele>
  <time>2013-04-03T16:58:20Z</time>
</trkpt>
<trkpt lat="51.695791693" lon="7.329307846">
  <ele>35.000000</ele>
  <time>2013-04-03T16:58:22Z</time>
</trkpt>
<trkpt lat="51.695704478" lon="7.329816745">
  <ele>35.000000</ele>
  <time>2013-04-03T16:58:28Z</time>
</trkpt>
<trkpt lat="51.695564089" lon="7.330364325">
  <ele>34.000000</ele>
  <time>2013-04-03T16:58:30Z</time>
</trkpt>
<trkpt lat="51.695422731" lon="7.330868572">
  <ele>34.000000</ele>
  <time>2013-04-03T16:58:34Z</time>
</trkpt>
<trkpt lat="51.695136661" lon="7.331616714">
  <ele>35.000000</ele>
  <time>2013-04-03T16:58:38Z</time>
</trkpt>
<trkpt lat="51.694954675" lon="7.332079082">
  <ele>35.000000</ele>
  <time>2013-04-03T16:58:39Z</time>
</trkpt>
<trkpt lat="51.694760846" lon="7.332671974">
  <ele>37.000000</ele>
  <time>2013-04-03T16:58:40Z</time>
</trkpt>
<trkpt lat="51.694634086" lon="7.333240644">
  <ele>37.000000</ele>
  <time>2013-04-03T16:58:41Z</time>
</trkpt>
<trkpt lat="51.694510095" lon="7.334004698">
  <ele>37.000000</ele>
  <time>2013-04-03T16:58:42Z</time>
</trkpt>
<trkpt lat="51.694384866" lon="7.334681784">
  <ele>37.000000</ele>
  <time>2013-04-03T16:58:44Z</time>
</trkpt>
<trkpt lat="51.694311175" lon="7.335205132">
  <ele>37.000000</ele>
  <time>2013-04-03T16:58:44Z</time>
</trkpt>
<trkpt lat="51.694232612" lon="7.335359999">
  <ele>37.000000</ele>
  <time>2013-04-03T16:58:45Z</time>
</trkpt>
<trkpt lat="51.694233841" lon="7.335446680">
  <ele>37.000000</ele>
  <time>2013-04-03T16:58:46Z</time>
</trkpt>
<trkpt lat="51.694060872" lon="7.335604869">
  <ele>37.000000</ele>
  <time>2013-04-03T16:58:48Z</time>
</trkpt>
<trkpt lat="51.693764635" lon="7.335637490">
  <ele>37.000000</ele>
  <time>2013-04-03T16:58:49Z</time>
</trkpt>
<trkpt lat="51.693212561" lon="7.335679355">
  <ele>39.000000</ele>
  <time>2013-04-03T16:58:51Z</time>
</trkpt>
<trkpt lat="51.692512041" lon="7.335726807">
  <ele>41.000000</ele>
  <time>2013-04-03T16:58:53Z</time>
</trkpt>
<trkpt lat="51.691313139" lon="7.335814149">
  <ele>40.000000</ele>
  <time>2013-04-03T16:58:54Z</time>
</trkpt>
<trkpt lat="51.690625383" lon="7.335796017">
  <ele>39.000000</ele>
  <time>2013-04-03T16:58:56Z</time>
</trkpt>
<trkpt lat="51.690316116" lon="7.335850721">
  <ele>38.000000</ele>
  <time>2013-04-03T16:58:57Z</time>
</trkpt>
<trkpt lat="51.689952499" lon="7.335885809">
  <ele>38.000000</ele>
  <time>2013-04-03T16:59:05Z</time>
</trkpt>
<trkpt lat="51.689413762" lon="7.335927319">
  <ele>38.000000</ele>
  <time>2013-04-03T16:59:08Z</time>
</trkpt>
<trkpt lat="51.689211928" lon="7.335956472">
  <ele>38.000000</ele>
  <time>2013-04-03T16:59:11Z</time>
</trkpt>
<trkpt lat="51.688846772" lon="7.335883007">
  <ele>38.000000</ele>
  <time>2013-04-03T16:59:12Z</time>
</trkpt>
<trkpt lat="51.688657352" lon="7.335846596">
  <ele>41.000000</ele>
  <time>2013-04-03T16:59:14Z</time>
</trkpt>
<trkpt lat="51.688306499" lon="7.335816107">
  <ele>41.000000</ele>
  <time>2013-04-03T16:59:15Z</time>
</trkpt>
<trkpt lat="51.688030398" lon="7.336303448">
  <ele>39.000000</ele>
  <time>2013-04-03T16:59:19Z</time>
</trkpt>
<trkpt lat="51.687479375" lon="7.337386671">
  <ele>43.000000</ele>
  <time>2013-04-03T16:59:20Z</time>
</trkpt>
<trkpt lat="51.687082455" lon="7.337921775">
  <ele>41.000000</ele>
  <time>2013-04-03T16:59:22Z</time>
</trkpt>
<trkpt lat="51.686860652" lon="7.338450457">
  <ele>42.000000</ele>
  <time>2013-04-03T16:59:23Z</time>
</trkpt>
<trkpt lat="51.686715271" lon="7.338672703">
  <ele>41.000000</ele>
  <time>2013-04-03T16:59:28Z</time>
</trkpt>
<trkpt lat="51.686503780" lon="7.338962471">
  <ele>41.000000</ele>
  <time>2013-04-03T16:59:29Z</time>
</trkpt>
<trkpt lat="51.686209993" lon="7.339168396">
  <ele>41.000000</ele>
  <time>2013-04-03T16:59:35Z</time>
</trkpt>
<trkpt lat="51.685899806" lon="7.339158143">
  <ele>42.000000</ele>
  <time>2013-04-03T16:59:36Z</time>
</trkpt>
<trkpt lat="51.685549566" lon="7.339170962">
  <ele>42.000000</ele>
  <time>2013-04-03T16:59:37Z</time>
</trkpt>
<trkpt lat="51.685185640" lon="7.339184282">
  <ele>40.000000</ele>
  <time>2013-04-03T16:59:40Z</time>
</trkpt>
<trkpt lat="51.685037191" lon="7.339189715">
  <ele>40.000000</ele>
  <time>2013-04-03T16:59:40Z</time>
</trkpt>
<trkpt lat="51.684874792" lon="7.339152163">
  <ele>40.000000</ele>
  <time>2013-04-03T16:59:41Z</time>
</trkpt>
<trkpt lat="51.684726082" lon="7.339114252">
  <ele>40.000000</ele>
  <time>2013-04-03T16:59:42Z</time>
</trkpt>
<trkpt lat="51.684603431" lon="7.339032033">
  <ele>40.000000</ele>
  <time>2013-04-03T16:59:43Z</time>
</trkpt>
<trkpt lat="51.684495384" lon="7.339014240">
  <ele>39.000000</ele>
  <time>2013-04-03T16:59:44Z</time>
</trkpt>
<trkpt lat="51.684317505" lon="7.338825588">
  <ele>39.000000</ele>
  <time>2013-04-03T16:59:45Z</time>
</trkpt>
<trkpt lat="51.684154493" lon="7.338744707">
  <ele>38.000000</ele>
  <time>2013-04-03T16:59:46Z</time>
</trkpt>
<trkpt lat="51.683832504" lon="7.338843343">
  <ele>38.000000</ele>
  <time>2013-04-03T16:59:47Z</time>
</trkpt>
<trkpt lat="51.683551440" lon="7.339005437">
  <ele>40.000000</ele>
  <time>2013-04-03T16:59:48Z</time>
</trkpt>
<trkpt lat="51.683282837" lon="7.339080369">
  <ele>40.000000</ele>
  <time>2013-04-03T16:59:49Z</time>
</trkpt>
<trkpt lat="51.683013313" lon="7.339090233">
  <ele>40.000000</ele>
  <time>2013-04-03T16:59:50Z</time>
</trkpt>
<trkpt lat="51.682797835" lon="7.339098119">
  <ele>41.000000</ele>
  <time>2013-04-03T16:59:51Z</time>
</trkpt>
<trkpt lat="51.682330153" lon="7.339397094">
  <ele>41.000000</ele>
  <time>2013-04-03T16:59:53Z</time>
</trkpt>
<trkpt lat="51.682183893" lon="7.339532501">
  <ele>41.000000</ele>
  <time>2013-04-03T17:00:00Z</time>
</trkpt>
<trkpt lat="51.681900989" lon="7.339564457">
  <ele>41.000000</ele>
  <time>2013-04-03T17:00:02Z</time>
</trkpt>
<trkpt lat="51.681658795" lon="7.339595065">
  <ele>41.000000</ele>
  <time>2013-04-03T17:00:03Z</time>
</trkpt>
<trkpt lat="51.681402958" lon="7.339604425">
  <ele>41.000000</ele>
  <time>2013-04-03T17:00:05Z</time>
</trkpt>
<trkpt lat="51.681242094" lon="7.339675407">
  <ele>41.000000</ele>
  <time>2013-04-03T17:00:07Z</time>
</trkpt>
<trkpt lat="51.681093951" lon="7.339702431">
  <ele>41.000000</ele>
  <time>2013-04-03T17:00:08Z</time>
</trkpt>
<trkpt lat="51.680973183" lon="7.339728595">
  <ele>41.000000</ele>
  <time>2013-04-03T17:00:10Z</time>
</trkpt>
<trkpt lat="51.680851144" lon="7.339689709">
  <ele>42.000000</ele>
  <time>2013-04-03T17:00:10Z</time>
</trkpt>
<trkpt lat="51.680700902" lon="7.339543409">
  <ele>42.000000</ele>
  <time>2013-04-03T17:00:12Z</time>
</trkpt>
<trkpt lat="51.680496001" lon="7.339355759">
  <ele>43.000000</ele>
  <time>2013-04-03T17:00:14Z</time>
</trkpt>
<trkpt lat="51.680193324" lon="7.338933053">
  <ele>45.000000</ele>
  <time>2013-04-03T17:00:15Z</time>
</trkpt>
<trkpt lat="51.680137436" lon="7.338804767">
  <ele>45.000000</ele>
  <time>2013-04-03T17:00:18Z</time>
</trkpt>
<trkpt lat="51.679756957" lon="7.339534594">
  <ele>45.000000</ele>
  <time>2013-04-03T17:00:20Z</time>
</trkpt>
<trkpt lat="51.679440742" lon="7.340066635">
  <ele>47.000000</ele>
  <time>2013-04-03T17:00:23Z</time>
</trkpt>
<trkpt lat="51.679085086" lon="7.340665204">
  <ele>48.000000</ele>
  <time>2013-04-03T17:00:25Z</time>
</trkpt>
<trkpt lat="51.678864539" lon="7.341258826">
  <ele>52.000000</ele>
  <time>2013-04-03T17:00:26Z</time>
</trkpt>
<trkpt lat="51.678706735" lon="7.341546569">
  <ele>54.000000</ele>
  <time>2013-04-03T17:00:27Z</time>
</trkpt>
<trkpt lat="51.678467600" lon="7.341793793">
  <ele>53.000000</ele>
  <time>2013-04-03T17:00:28Z</time>
</trkpt>
<trkpt lat="51.678174425" lon="7.342043411">
  <ele>53.000000</ele>
  <time>2013-04-03T17:00:33Z</time>
</trkpt>
<trkpt lat="51.677962008" lon="7.342268191">
  <ele>53.000000</ele>
  <time>2013-04-03T17:00:35Z</time>
</trkpt>
<trkpt lat="51.677687057" lon="7.342863777">
  <ele>52.000000</ele>
  <time>2013-04-03T17:00:37Z</time>
</trkpt>
<trkpt lat="51.677161769" lon="7.343858896">
  <ele>46.000000</ele>
  <time>2013-04-03T17:00:40Z</time>
</trkpt>
<trkpt lat="51.676634944" lon="7.344745611">
  <ele>44.000000</ele>
  <time>2013-04-03T17:00:41Z</time>
</trkpt>
<trkpt lat="51.675937266" lon="7.345942094">
  <ele>45.000000</ele>
  <time>2013-04-03T17:00:43Z</time>
</trkpt>
<trkpt lat="51.675146699" lon="7.347250496">
  <ele>45.000000</ele>
  <time>2013-04-03T17:00:46Z</time>
</trkpt>
<trkpt lat="51.674833542" lon="7.347977438">
  <ele>44.000000</ele>
  <time>2013-04-03T17:00:48Z</time>
</trkpt>
<trkpt lat="51.674358857" lon="7.348753731">
  <ele>44.000000</ele>
  <time>2013-04-03T17:00:49Z</time>
</trkpt>
<trkpt lat="51.673896938" lon="7.349464458">
  <ele>44.000000</ele>
  <time>2013-04-03T17:00:51Z</time>
</trkpt>
<trkpt lat="51.673293311" lon="7.350635776">
  <ele>45.000000</ele>
  <time>2013-04-03T17:00:52Z</time>
</trkpt>
<trkpt lat="51.672794673" lon="7.351607997">
  <ele>45.000000</ele>
  <time>2013-04-03T17:00:53Z</time>
</trkpt>
<trkpt lat="51.672597050" lon="7.351962478">
  <ele>45.000000</ele>
  <time>2013-04-03T17:00:58Z</time>
</trkpt>
<trkpt lat="51.672467200" lon="7.352292472">
  <ele>45.000000</ele>
  <time>2013-04-03T17:01:00Z</time>
</trkpt>
<trkpt lat="51.672257755" lon="7.352755519">
  <ele>46.000000</ele>
  <time>2013-04-03T17:01:02Z</time>
</trkpt>
<trkpt lat="51.672141542" lon="7.353106614">
  <ele>46.000000</ele>
  <time>2013-04-03T17:01:03Z</time>
</trkpt>
<trkpt lat="51.672159132" lon="7.353409512">
  <ele>45.000000</ele>
  <time>2013-04-03T17:01:04Z</time>
</trkpt>
<trkpt lat="51.672041656" lon="7.353695707">
  <ele>49.000000</ele>
  <time>2013-04-03T17:01:05Z</time>
</trkpt>
<trkpt lat="51.671899026" lon="7.354091239">
  <ele>50.000000</ele>
  <time>2013-04-03T17:01:07Z</time>
</trkpt>
<trkpt lat="51.671715381" lon="7.354466513">
  <ele>50.000000</ele>
  <time>2013-04-03T17:01:08Z</time>
</trkpt>
<trkpt lat="51.671531478" lon="7.354798451">
  <ele>50.000000</ele>
  <time>2013-04-03T17:01:09Z</time>
</trkpt>
<trkpt lat="51.671346920" lon="7.355108670">
  <ele>51.000000</ele>
  <time>2013-04-03T17:01:12Z</time>
</trkpt>
<trkpt lat="51.670961782" lon="7.355512975">
  <ele>51.000000</ele>
  <time>2013-04-03T17:01:14Z</time>
</trkpt>
<trkpt lat="51.670723177" lon="7.355825285">
  <ele>49.000000</ele>
  <time>2013-04-03T17:01:17Z</time>
</trkpt>
<trkpt lat="51.670566547" lon="7.356199422">
  <ele>48.000000</ele>
  <time>2013-04-03T17:01:18Z</time>
</trkpt>
<trkpt lat="51.670047857" lon="7.356695366">
  <ele>48.000000</ele>
  <time>2013-04-03T17:01:20Z</time>
</trkpt>
<trkpt lat="51.669541843" lon="7.357168958">
  <ele>50.000000</ele>
  <time>2013-04-03T17:01:22Z</time>
</trkpt>
<trkpt lat="51.669158819" lon="7.357724911">
  <ele>51.000000</ele>
  <time>2013-04-03T17:01:23Z</time>
</trkpt>
<trkpt lat="51.668760590" lon="7.358172985">
  <ele>50.000000</ele>
  <time>2013-04-03T17:01:24Z</time>
</trkpt>
<trkpt lat="51.668442170" lon="7.358553230">
  <ele>55.000000</ele>
  <time>2013-04-03T17:01:25Z</time>
</trkpt>
<trkpt lat="51.668138343" lon="7.358997878">
  <ele>54.000000</ele>
  <time>2013-04-03T17:01:27Z</time>
</trkpt>
<trkpt lat="51.667848151" lon="7.359463626">
  <ele>52.000000</ele>
  <time>2013-04-03T17:01:28Z</time>
</trkpt>
<trkpt lat="51.667676965" lon="7.359751719">
  <ele>52.000000</ele>
  <time>2013-04-03T17:01:29Z</time>
</trkpt>
<trkpt lat="51.667558915" lon="7.359972813">
  <ele>52.000000</ele>
  <time>2013-04-03T17:01:35Z</time>
</trkpt>
<trkpt lat="51.667603209" lon="7.360253120">
  <ele>52.000000</ele>
  <time>2013-04-03T17:01:36Z</time>
</trkpt>
<trkpt lat="51.667686953" lon="7.360466926">
  <ele>50.000000</ele>
  <time>2013-04-03T17:01:37Z</time>
</trkpt>
<trkpt lat="51.667677852" lon="7.360770760">
  <ele>50.000000</ele>
  <time>2013-04-03T17:01:38Z</time>
</trkpt>
<trkpt lat="51.667710270" lon="7.361181511">
  <ele>49.000000</ele>
  <time>2013-04-03T17:01:39Z</time>
</trkpt>
<trkpt lat="51.667648986" lon="7.361595785">
  <ele>46.000000</ele>
  <time>2013-04-03T17:01:42Z</time>
</trkpt>
<trkpt lat="51.667653825" lon="7.361942595">
  <ele>46.000000</ele>
  <time>2013-04-03T17:01:43Z</time>
</trkpt>
<trkpt lat="51.667818281" lon="7.362153351">
  <ele>47.000000</ele>
  <time>2013-04-03T17:01:45Z</time>
</trkpt>
<trkpt lat="51.668158819" lon="7.362401379">
  <ele>44.000000</ele>
  <time>2013-04-03T17:01:47Z</time>
</trkpt>
<trkpt lat="51.668074083" lon="7.363098270">
  <ele>44.000000</ele>
  <time>2013-04-03T17:01:48Z</time>
</trkpt>
<trkpt lat="51.667950544" lon="7.363883373">
  <ele>44.000000</ele>
  <time>2013-04-03T17:01:50Z</time>
</trkpt>
<trkpt lat="51.667863384" lon="7.364406851">
  <ele>46.000000</ele>
  <time>2013-04-03T17:01:52Z</time>
</trkpt>
<trkpt lat="51.667897602" lon="7.364947696">
  <ele>43.000000</ele>
  <time>2013-04-03T17:01:53Z</time>
</trkpt>
<trkpt lat="51.667976797" lon="7.365768691">
  <ele>39.000000</ele>
  <time>2013-04-03T17:01:54Z</time>
</trkpt>
<trkpt lat="51.668083868" lon="7.366675645">
  <ele>41.000000</ele>
  <time>2013-04-03T17:01:56Z</time>
</trkpt>
<trkpt lat="51.668139672" lon="7.366825392">
  <ele>42.000000</ele>
  <time>2013-04-03T17:01:59Z</time>
</trkpt>
<trkpt lat="51.668662552" lon="7.367587104">
  <ele>43.000000</ele>
  <time>2013-04-03T17:02:01Z</time>
</trkpt>
<trkpt lat="51.668879240" lon="7.367666133">
  <ele>42.000000</ele>
  <time>2013-04-03T17:02:02Z</time>
</trkpt>
<trkpt lat="51.669109313" lon="7.367722941">
  <ele>42.000000</ele>
  <time>2013-04-03T17:02:03Z</time>
</trkpt>
<trkpt lat="51.669364601" lon="7.367648683">
  <ele>43.000000</ele>
  <time>2013-04-03T17:02:06Z</time>
</trkpt>
<trkpt lat="51.669438007" lon="7.368079721">
  <ele>43.000000</ele>
  <time>2013-04-03T17:02:07Z</time>
</trkpt>
<trkpt lat="51.669512316" lon="7.368575807">
  <ele>42.000000</ele>
  <time>2013-04-03T17:02:08Z</time>
</trkpt>
<trkpt lat="51.669603018" lon="7.369266405">
  <ele>40.000000</ele>
  <time>2013-04-03T17:02:10Z</time>
</trkpt>
<trkpt lat="51.669572238" lon="7.369983108">
  <ele>42.000000</ele>
  <time>2013-04-03T17:02:12Z</time>
</trkpt>
<trkpt lat="51.669541805" lon="7.370699797">
  <ele>47.000000</ele>
  <time>2013-04-03T17:02:13Z</time>
</trkpt>
<trkpt lat="51.669546315" lon="7.371024893">
  <ele>47.000000</ele>
  <time>2013-04-03T17:02:57Z</time>
</trkpt>
<trkpt lat="51.669511966" lon="7.371459661">
  <ele>50.000000</ele>
  <time>2013-04-03T17:02:59Z</time>
</trkpt>
<trkpt lat="51.669961479" lon="7.371768940">
  <ele>49.000000</ele>
  <time>2013-04-03T17:03:01Z</time>
</trkpt>
<trkpt lat="51.669911038" lon="7.372030930">
  <ele>50.000000</ele>
  <time>2013-04-03T17:03:04Z</time>
</trkpt>
<trkpt lat="51.670210243" lon="7.372237043">
  <ele>52.000000</ele>
  <time>2013-04-03T17:03:05Z</time>
</trkpt>
<trkpt lat="51.670743172" lon="7.372738307">
  <ele>46.000000</ele>
  <time>2013-04-03T17:03:06Z</time>
</trkpt>
<trkpt lat="51.671600575" lon="7.373293038">
  <ele>46.000000</ele>
  <time>2013-04-03T17:03:08Z</time>
</trkpt>
<trkpt lat="51.672253931" lon="7.373768697">
  <ele>43.000000</ele>
  <time>2013-04-03T17:03:21Z</time>
</trkpt>
<trkpt lat="51.672799289" lon="7.374204471">
  <ele>41.000000</ele>
  <time>2013-04-03T17:03:25Z</time>
</trkpt>
<trkpt lat="51.673289751" lon="7.374555534">
  <ele>40.000000</ele>
  <time>2013-04-03T17:03:28Z</time>
</trkpt>
<trkpt lat="51.673739502" lon="7.374908062">
  <ele>40.000000</ele>
  <time>2013-04-03T17:03:30Z</time>
</trkpt>
<trkpt lat="51.674229065" lon="7.375194227">
  <ele>42.000000</ele>
  <time>2013-04-03T17:03:32Z</time>
</trkpt>
<trkpt lat="51.674500642" lon="7.375358025">
  <ele>46.000000</ele>
  <time>2013-04-03T17:03:33Z</time>
</trkpt>
<trkpt lat="51.674880660" lon="7.375517803">
  <ele>62.000000</ele>
  <time>2013-04-03T17:03:34Z</time>
</trkpt>
<trkpt lat="51.675299790" lon="7.375611378">
  <ele>64.000000</ele>
  <time>2013-04-03T17:03:35Z</time>
</trkpt>
<trkpt lat="51.675609976" lon="7.375621880">
  <ele>62.000000</ele>
  <time>2013-04-03T17:03:36Z</time>
</trkpt>
<trkpt lat="51.676231002" lon="7.375664746">
  <ele>59.000000</ele>
  <time>2013-04-03T17:03:43Z</time>
</trkpt>
<trkpt lat="51.676785494" lon="7.375796687">
  <ele>61.000000</ele>
  <time>2013-04-03T17:03:47Z</time>
</trkpt>
<trkpt lat="51.677554620" lon="7.375834256">
  <ele>61.000000</ele>
  <time>2013-04-03T17:03:52Z</time>
</trkpt>
<trkpt lat="51.677824449" lon="7.375846345">
  <ele>58.000000</ele>
  <time>2013-04-03T17:03:59Z</time>
</trkpt>
<trkpt lat="51.678230540" lon="7.375961858">
  <ele>47.000000</ele>
  <time>2013-04-03T17:04:01Z</time>
</trkpt>
<trkpt lat="51.678486381" lon="7.375952704">
  <ele>43.000000</ele>
  <time>2013-04-03T17:04:02Z</time>
</trkpt>
<trkpt lat="51.678715550" lon="7.375944504">
  <ele>43.000000</ele>
  <time>2013-04-03T17:04:03Z</time>
</trkpt>
<trkpt lat="51.678826291" lon="7.376157565">
  <ele>42.000000</ele>
  <time>2013-04-03T17:04:05Z</time>
</trkpt>
<trkpt lat="51.679177788" lon="7.376210084">
  <ele>42.000000</ele>
  <time>2013-04-03T17:04:06Z</time>
</trkpt>
<trkpt lat="51.679312553" lon="7.376205262">
  <ele>44.000000</ele>
  <time>2013-04-03T17:04:07Z</time>
</trkpt>
<trkpt lat="51.679433029" lon="7.376157462">
  <ele>44.000000</ele>
  <time>2013-04-03T17:04:08Z</time>
</trkpt>
<trkpt lat="51.679526835" lon="7.376110757">
  <ele>44.000000</ele>
  <time>2013-04-03T17:04:09Z</time>
</trkpt>
<trkpt lat="51.679823387" lon="7.376100146">
  <ele>49.000000</ele>
  <time>2013-04-03T17:04:10Z</time>
</trkpt>
<trkpt lat="51.680363644" lon="7.376167657">
  <ele>51.000000</ele>
  <time>2013-04-03T17:04:12Z</time>
</trkpt>
<trkpt lat="51.681512135" lon="7.376343319">
  <ele>46.000000</ele>
  <time>2013-04-03T17:04:19Z</time>
</trkpt>
<trkpt lat="51.682051490" lon="7.376345628">
  <ele>51.000000</ele>
  <time>2013-04-03T17:04:21Z</time>
</trkpt>
<trkpt lat="51.682483705" lon="7.376395263">
  <ele>58.000000</ele>
  <time>2013-04-03T17:04:25Z</time>
</trkpt>
<trkpt lat="51.683024263" lon="7.376484516">
  <ele>65.000000</ele>
  <time>2013-04-03T17:04:26Z</time>
</trkpt>
<trkpt lat="51.683103676" lon="7.375397016">
  <ele>54.000000</ele>
  <time>2013-04-03T17:04:28Z</time>
</trkpt>
<trkpt lat="51.683166395" lon="7.374093489">
  <ele>49.000000</ele>
  <time>2013-04-03T17:04:29Z</time>
</trkpt>
<trkpt lat="51.683206630" lon="7.373094233">
  <ele>50.000000</ele>
  <time>2013-04-03T17:04:31Z</time>
</trkpt>
<trkpt lat="51.683287768" lon="7.372158748">
  <ele>49.000000</ele>
  <time>2013-04-03T17:04:33Z</time>
</trkpt>
<trkpt lat="51.682917273" lon="7.371673133">
  <ele>48.000000</ele>
  <time>2013-04-03T17:04:34Z</time>
</trkpt>
<trkpt lat="51.682600423" lon="7.371207347">
  <ele>46.000000</ele>
  <time>2013-04-03T17:04:36Z</time>
</trkpt>
<trkpt lat="51.682188613" lon="7.370679879">
  <ele>46.000000</ele>
  <time>2013-04-03T17:04:38Z</time>
</trkpt>
<trkpt lat="51.682029982" lon="7.369926288">
  <ele>44.000000</ele>
  <time>2013-04-03T17:04:40Z</time>
</trkpt>
<trkpt lat="51.681842219" lon="7.369022091">
  <ele>44.000000</ele>
  <time>2013-04-03T17:04:45Z</time>
</trkpt>
<trkpt lat="51.681678410" lon="7.367921888">
  <ele>44.000000</ele>
  <time>2013-04-03T17:04:47Z</time>
</trkpt>
<trkpt lat="51.681492136" lon="7.367125959">
  <ele>44.000000</ele>
  <time>2013-04-03T17:04:48Z</time>
</trkpt>
<trkpt lat="51.681536235" lon="7.366408728">
  <ele>44.000000</ele>
  <time>2013-04-03T17:04:50Z</time>
</trkpt>
<trkpt lat="51.681577259" lon="7.365496173">
  <ele>45.000000</ele>
  <time>2013-04-03T17:04:51Z</time>
</trkpt>
<trkpt lat="51.681645956" lon="7.364604507">
  <ele>47.000000</ele>
  <time>2013-04-03T17:04:57Z</time>
</trkpt>
<trkpt lat="51.681685458" lon="7.363583695">
  <ele>51.000000</ele>
  <time>2013-04-03T17:04:59Z</time>
</trkpt>
<trkpt lat="51.681768985" lon="7.362799796">
  <ele>49.000000</ele>
  <time>2013-04-03T17:05:01Z</time>
</trkpt>
</trkseg>
</trk>
</gpx>
